sensor_id;sensor_type;location;lat;lon;timestamp;temperature;humidity
32097;DHT22;18610;49.916;8.284;2023-04-21T00:00:30;7.90;99.90
32097;DHT22;18610;49.916;8.284;2023-04-21T00:02:57;7.80;99.90
32097;DHT22;18610;49.916;8.284;2023-04-21T00:05:25;7.70;99.90
32097;DHT22;18610;49.916;8.284;2023-04-21T00:07:52;7.50;99.90
32097;DHT22;18610;49.916;8.284;2023-04-21T00:10:18;7.40;99.90
32097;DHT22;18610;49.916;8.284;2023-04-21T00:12:45;7.50;99.90
32097;DHT22;18610;49.916;8.284;2023-04-21T00:15:13;7.40;99.90
32097;DHT22;18610;49.916;8.284;2023-04-21T00:17:40;7.40;99.90
32097;DHT22;18610;49.916;8.284;2023-04-21T00:20:08;7.30;99.90
32097;DHT22;18610;49.916;8.284;2023-04-21T00:22:35;7.30;99.90
32097;DHT22;18610;49.916;8.284;2023-04-21T00:25:02;7.20;99.90
32097;DHT22;18610;49.916;8.284;2023-04-21T00:27:29;7.10;99.90
32097;DHT22;18610;49.916;8.284;2023-04-21T00:29:55;6.90;99.90
32097;DHT22;18610;49.916;8.284;2023-04-21T00:32:23;6.80;99.90
32097;DHT22;18610;49.916;8.284;2023-04-21T00:34:50;6.70;99.90
32097;DHT22;18610;49.916;8.284;2023-04-21T00:37:17;6.70;99.90
32097;DHT22;18610;49.916;8.284;2023-04-21T00:39:43;6.70;99.90
32097;DHT22;18610;49.916;8.284;2023-04-21T00:42:10;6.70;99.90
32097;DHT22;18610;49.916;8.284;2023-04-21T00:44:37;6.70;99.90
32097;DHT22;18610;49.916;8.284;2023-04-21T00:47:03;6.60;99.90
32097;DHT22;18610;49.916;8.284;2023-04-21T00:49:32;6.50;99.90
32097;DHT22;18610;49.916;8.284;2023-04-21T00:51:59;6.50;99.90
32097;DHT22;18610;49.916;8.284;2023-04-21T00:54:26;6.40;99.90
32097;DHT22;18610;49.916;8.284;2023-04-21T00:56:54;6.40;99.90
32097;DHT22;18610;49.916;8.284;2023-04-21T00:59:22;6.20;99.90
32097;DHT22;18610;49.916;8.284;2023-04-21T01:01:49;6.10;99.90
32097;DHT22;18610;49.916;8.284;2023-04-21T01:04:17;6.00;99.90
32097;DHT22;18610;49.916;8.284;2023-04-21T01:06:45;5.90;99.90
32097;DHT22;18610;49.916;8.284;2023-04-21T01:09:12;5.90;99.90
32097;DHT22;18610;49.916;8.284;2023-04-21T01:11:39;5.90;99.90
32097;DHT22;18610;49.916;8.284;2023-04-21T01:14:06;5.90;99.90
32097;DHT22;18610;49.916;8.284;2023-04-21T01:16:33;5.90;99.90
32097;DHT22;18610;49.916;8.284;2023-04-21T01:19:00;5.90;99.90
32097;DHT22;18610;49.916;8.284;2023-04-21T01:21:26;5.90;99.90
32097;DHT22;18610;49.916;8.284;2023-04-21T01:23:57;5.90;99.90
32097;DHT22;18610;49.916;8.284;2023-04-21T01:26:24;5.80;99.90
32097;DHT22;18610;49.916;8.284;2023-04-21T01:28:51;5.80;99.90
32097;DHT22;18610;49.916;8.284;2023-04-21T01:31:17;5.80;99.90
32097;DHT22;18610;49.916;8.284;2023-04-21T01:33:45;5.80;99.90
32097;DHT22;18610;49.916;8.284;2023-04-21T01:36:12;5.80;99.90
32097;DHT22;18610;49.916;8.284;2023-04-21T01:38:39;5.80;99.90
32097;DHT22;18610;49.916;8.284;2023-04-21T01:41:08;5.70;99.90
32097;DHT22;18610;49.916;8.284;2023-04-21T01:43:35;5.70;99.90
32097;DHT22;18610;49.916;8.284;2023-04-21T01:46:03;5.70;99.90
32097;DHT22;18610;49.916;8.284;2023-04-21T01:48:30;5.70;99.90
32097;DHT22;18610;49.916;8.284;2023-04-21T01:50:57;5.70;99.90
32097;DHT22;18610;49.916;8.284;2023-04-21T01:53:24;5.60;99.90
32097;DHT22;18610;49.916;8.284;2023-04-21T01:55:51;5.60;99.90
32097;DHT22;18610;49.916;8.284;2023-04-21T01:58:19;5.60;99.90
32097;DHT22;18610;49.916;8.284;2023-04-21T02:00:46;5.60;99.90
32097;DHT22;18610;49.916;8.284;2023-04-21T02:03:12;5.60;99.90
32097;DHT22;18610;49.916;8.284;2023-04-21T02:05:39;5.60;99.90
32097;DHT22;18610;49.916;8.284;2023-04-21T02:08:06;5.70;99.90
32097;DHT22;18610;49.916;8.284;2023-04-21T02:10:32;5.80;99.90
32097;DHT22;18610;49.916;8.284;2023-04-21T02:13:02;5.80;99.90
32097;DHT22;18610;49.916;8.284;2023-04-21T02:15:30;5.90;99.90
32097;DHT22;18610;49.916;8.284;2023-04-21T02:17:58;5.90;99.90
32097;DHT22;18610;49.916;8.284;2023-04-21T02:20:24;5.90;99.90
32097;DHT22;18610;49.916;8.284;2023-04-21T02:22:51;6.00;99.90
32097;DHT22;18610;49.916;8.284;2023-04-21T02:25:18;6.00;99.90
32097;DHT22;18610;49.916;8.284;2023-04-21T02:27:45;6.00;99.90
32097;DHT22;18610;49.916;8.284;2023-04-21T02:30:12;6.10;99.90
32097;DHT22;18610;49.916;8.284;2023-04-21T02:32:40;6.00;99.90
32097;DHT22;18610;49.916;8.284;2023-04-21T02:35:07;6.00;99.90
32097;DHT22;18610;49.916;8.284;2023-04-21T02:37:35;6.00;99.90
32097;DHT22;18610;49.916;8.284;2023-04-21T02:40:02;6.00;99.90
32097;DHT22;18610;49.916;8.284;2023-04-21T02:42:31;5.90;99.90
32097;DHT22;18610;49.916;8.284;2023-04-21T02:44:58;5.90;99.90
32097;DHT22;18610;49.916;8.284;2023-04-21T02:47:24;5.90;99.90
32097;DHT22;18610;49.916;8.284;2023-04-21T02:49:52;5.90;99.90
32097;DHT22;18610;49.916;8.284;2023-04-21T02:52:19;5.90;99.90
32097;DHT22;18610;49.916;8.284;2023-04-21T02:54:46;5.90;99.90
32097;DHT22;18610;49.916;8.284;2023-04-21T02:57:12;5.90;99.90
32097;DHT22;18610;49.916;8.284;2023-04-21T02:59:39;5.90;99.90
32097;DHT22;18610;49.916;8.284;2023-04-21T03:02:06;5.90;99.90
32097;DHT22;18610;49.916;8.284;2023-04-21T03:04:32;5.90;99.90
32097;DHT22;18610;49.916;8.284;2023-04-21T03:07:00;5.90;99.90
32097;DHT22;18610;49.916;8.284;2023-04-21T03:09:27;5.90;99.90
32097;DHT22;18610;49.916;8.284;2023-04-21T03:11:54;6.00;99.90
32097;DHT22;18610;49.916;8.284;2023-04-21T03:14:20;6.00;99.90
32097;DHT22;18610;49.916;8.284;2023-04-21T03:16:47;6.00;99.90
32097;DHT22;18610;49.916;8.284;2023-04-21T03:19:14;6.10;99.90
32097;DHT22;18610;49.916;8.284;2023-04-21T03:21:40;6.10;99.90
32097;DHT22;18610;49.916;8.284;2023-04-21T03:24:08;6.00;99.90
32097;DHT22;18610;49.916;8.284;2023-04-21T03:26:37;6.10;99.90
32097;DHT22;18610;49.916;8.284;2023-04-21T03:29:04;6.10;99.90
32097;DHT22;18610;49.916;8.284;2023-04-21T03:31:31;6.10;99.90
32097;DHT22;18610;49.916;8.284;2023-04-21T03:33:57;6.20;99.90
32097;DHT22;18610;49.916;8.284;2023-04-21T03:36:24;6.30;99.90
32097;DHT22;18610;49.916;8.284;2023-04-21T03:38:51;6.40;99.90
32097;DHT22;18610;49.916;8.284;2023-04-21T03:41:19;6.40;99.90
32097;DHT22;18610;49.916;8.284;2023-04-21T03:43:46;6.50;99.90
32097;DHT22;18610;49.916;8.284;2023-04-21T03:46:18;6.60;99.90
32097;DHT22;18610;49.916;8.284;2023-04-21T03:48:45;6.60;99.90
32097;DHT22;18610;49.916;8.284;2023-04-21T03:51:12;6.70;99.90
32097;DHT22;18610;49.916;8.284;2023-04-21T03:53:39;6.70;99.90
32097;DHT22;18610;49.916;8.284;2023-04-21T03:56:07;6.80;99.90
32097;DHT22;18610;49.916;8.284;2023-04-21T03:58:35;6.80;99.90
32097;DHT22;18610;49.916;8.284;2023-04-21T04:01:04;6.90;99.90
32097;DHT22;18610;49.916;8.284;2023-04-21T04:03:31;6.90;99.90
32097;DHT22;18610;49.916;8.284;2023-04-21T04:05:57;7.00;99.90
32097;DHT22;18610;49.916;8.284;2023-04-21T04:08:24;7.00;99.90
32097;DHT22;18610;49.916;8.284;2023-04-21T04:10:51;7.00;99.90
32097;DHT22;18610;49.916;8.284;2023-04-21T04:13:17;7.10;99.90
32097;DHT22;18610;49.916;8.284;2023-04-21T04:15:47;7.20;99.90
32097;DHT22;18610;49.916;8.284;2023-04-21T04:18:13;7.20;99.90
32097;DHT22;18610;49.916;8.284;2023-04-21T04:20:40;7.30;99.90
32097;DHT22;18610;49.916;8.284;2023-04-21T04:23:07;7.30;99.90
32097;DHT22;18610;49.916;8.284;2023-04-21T04:25:34;7.40;99.90
32097;DHT22;18610;49.916;8.284;2023-04-21T04:28:01;7.40;99.90
32097;DHT22;18610;49.916;8.284;2023-04-21T04:30:29;7.40;99.90
32097;DHT22;18610;49.916;8.284;2023-04-21T04:32:58;7.50;99.90
32097;DHT22;18610;49.916;8.284;2023-04-21T04:35:25;7.50;99.90
32097;DHT22;18610;49.916;8.284;2023-04-21T04:37:52;7.50;99.90
32097;DHT22;18610;49.916;8.284;2023-04-21T04:40:19;7.60;99.90
32097;DHT22;18610;49.916;8.284;2023-04-21T04:42:46;7.60;99.90
32097;DHT22;18610;49.916;8.284;2023-04-21T04:45:13;7.70;99.90
32097;DHT22;18610;49.916;8.284;2023-04-21T04:47:41;7.70;99.90
32097;DHT22;18610;49.916;8.284;2023-04-21T04:50:09;7.80;99.90
32097;DHT22;18610;49.916;8.284;2023-04-21T04:52:36;7.80;99.90
32097;DHT22;18610;49.916;8.284;2023-04-21T04:55:05;7.80;99.90
32097;DHT22;18610;49.916;8.284;2023-04-21T04:57:32;7.80;99.90
32097;DHT22;18610;49.916;8.284;2023-04-21T04:59:59;7.80;99.90
32097;DHT22;18610;49.916;8.284;2023-04-21T05:02:25;7.90;99.90
32097;DHT22;18610;49.916;8.284;2023-04-21T05:04:52;7.90;99.90
32097;DHT22;18610;49.916;8.284;2023-04-21T05:07:20;7.90;99.90
32097;DHT22;18610;49.916;8.284;2023-04-21T05:09:47;7.90;99.90
32097;DHT22;18610;49.916;8.284;2023-04-21T05:12:14;7.90;99.90
32097;DHT22;18610;49.916;8.284;2023-04-21T05:14:41;8.00;99.90
32097;DHT22;18610;49.916;8.284;2023-04-21T05:17:07;8.00;99.90
32097;DHT22;18610;49.916;8.284;2023-04-21T05:19:34;8.00;99.90
32097;DHT22;18610;49.916;8.284;2023-04-21T05:22:02;7.90;99.90
32097;DHT22;18610;49.916;8.284;2023-04-21T05:24:32;8.00;99.90
32097;DHT22;18610;49.916;8.284;2023-04-21T05:26:59;8.00;99.90
32097;DHT22;18610;49.916;8.284;2023-04-21T05:29:27;8.00;99.90
32097;DHT22;18610;49.916;8.284;2023-04-21T05:31:54;7.90;99.90
32097;DHT22;18610;49.916;8.284;2023-04-21T05:34:20;7.80;99.90
32097;DHT22;18610;49.916;8.284;2023-04-21T05:36:47;7.80;99.90
32097;DHT22;18610;49.916;8.284;2023-04-21T05:39:14;7.80;99.90
32097;DHT22;18610;49.916;8.284;2023-04-21T05:41:43;7.80;99.90
32097;DHT22;18610;49.916;8.284;2023-04-21T05:44:10;7.80;99.90
32097;DHT22;18610;49.916;8.284;2023-04-21T05:46:36;7.80;99.90
32097;DHT22;18610;49.916;8.284;2023-04-21T05:49:03;7.80;99.90
32097;DHT22;18610;49.916;8.284;2023-04-21T05:51:30;7.80;99.90
32097;DHT22;18610;49.916;8.284;2023-04-21T05:53:57;7.80;99.90
32097;DHT22;18610;49.916;8.284;2023-04-21T05:56:23;7.80;99.90
32097;DHT22;18610;49.916;8.284;2023-04-21T05:58:51;7.80;99.90
32097;DHT22;18610;49.916;8.284;2023-04-21T06:01:18;7.80;99.90
32097;DHT22;18610;49.916;8.284;2023-04-21T06:03:45;7.90;99.90
32097;DHT22;18610;49.916;8.284;2023-04-21T06:06:13;7.90;99.90
32097;DHT22;18610;49.916;8.284;2023-04-21T06:08:40;7.90;99.90
32097;DHT22;18610;49.916;8.284;2023-04-21T06:11:07;8.00;99.90
32097;DHT22;18610;49.916;8.284;2023-04-21T06:13:33;8.00;99.90
32097;DHT22;18610;49.916;8.284;2023-04-21T06:16:01;8.10;99.90
32097;DHT22;18610;49.916;8.284;2023-04-21T06:18:28;8.10;99.90
32097;DHT22;18610;49.916;8.284;2023-04-21T06:20:56;8.20;99.90
32097;DHT22;18610;49.916;8.284;2023-04-21T06:23:22;8.30;99.90
32097;DHT22;18610;49.916;8.284;2023-04-21T06:25:58;8.40;99.90
32097;DHT22;18610;49.916;8.284;2023-04-21T06:28:27;8.50;99.90
32097;DHT22;18610;49.916;8.284;2023-04-21T06:30:54;8.60;99.90
32097;DHT22;18610;49.916;8.284;2023-04-21T06:33:22;8.60;99.90
32097;DHT22;18610;49.916;8.284;2023-04-21T06:35:49;8.60;99.90
32097;DHT22;18610;49.916;8.284;2023-04-21T06:38:15;8.60;99.90
32097;DHT22;18610;49.916;8.284;2023-04-21T06:40:42;8.60;99.90
32097;DHT22;18610;49.916;8.284;2023-04-21T06:43:09;8.60;99.90
32097;DHT22;18610;49.916;8.284;2023-04-21T06:45:36;8.60;99.90
32097;DHT22;18610;49.916;8.284;2023-04-21T06:48:03;8.60;99.90
32097;DHT22;18610;49.916;8.284;2023-04-21T06:50:31;8.60;99.90
32097;DHT22;18610;49.916;8.284;2023-04-21T06:52:58;8.60;99.90
32097;DHT22;18610;49.916;8.284;2023-04-21T06:55:25;8.60;99.90
32097;DHT22;18610;49.916;8.284;2023-04-21T06:57:52;8.60;99.90
32097;DHT22;18610;49.916;8.284;2023-04-21T07:00:19;8.70;99.90
32097;DHT22;18610;49.916;8.284;2023-04-21T07:02:45;8.70;99.90
32097;DHT22;18610;49.916;8.284;2023-04-21T07:05:12;8.70;99.90
32097;DHT22;18610;49.916;8.284;2023-04-21T07:07:40;8.80;99.90
32097;DHT22;18610;49.916;8.284;2023-04-21T07:10:08;8.80;99.90
32097;DHT22;18610;49.916;8.284;2023-04-21T07:12:34;8.80;99.90
32097;DHT22;18610;49.916;8.284;2023-04-21T07:15:01;8.90;99.90
32097;DHT22;18610;49.916;8.284;2023-04-21T07:17:28;9.00;99.90
32097;DHT22;18610;49.916;8.284;2023-04-21T07:19:56;9.00;99.90
32097;DHT22;18610;49.916;8.284;2023-04-21T07:22:22;9.10;99.90
32097;DHT22;18610;49.916;8.284;2023-04-21T07:24:51;9.20;99.90
32097;DHT22;18610;49.916;8.284;2023-04-21T07:27:17;9.30;99.90
32097;DHT22;18610;49.916;8.284;2023-04-21T07:29:44;9.40;99.90
32097;DHT22;18610;49.916;8.284;2023-04-21T07:32:11;9.40;99.90
32097;DHT22;18610;49.916;8.284;2023-04-21T07:34:38;9.50;99.90
32097;DHT22;18610;49.916;8.284;2023-04-21T07:37:05;9.50;99.90
32097;DHT22;18610;49.916;8.284;2023-04-21T07:39:31;9.60;99.90
32097;DHT22;18610;49.916;8.284;2023-04-21T07:41:59;9.60;99.90
32097;DHT22;18610;49.916;8.284;2023-04-21T07:44:26;9.60;99.90
32097;DHT22;18610;49.916;8.284;2023-04-21T07:46:53;9.60;99.90
32097;DHT22;18610;49.916;8.284;2023-04-21T07:49:20;9.60;99.90
32097;DHT22;18610;49.916;8.284;2023-04-21T07:51:47;9.50;99.90
32097;DHT22;18610;49.916;8.284;2023-04-21T07:54:14;9.50;99.90
32097;DHT22;18610;49.916;8.284;2023-04-21T07:56:41;9.50;99.90
32097;DHT22;18610;49.916;8.284;2023-04-21T07:59:09;9.50;99.90
32097;DHT22;18610;49.916;8.284;2023-04-21T08:01:35;9.50;99.90
32097;DHT22;18610;49.916;8.284;2023-04-21T08:04:02;9.50;99.90
32097;DHT22;18610;49.916;8.284;2023-04-21T08:06:29;9.50;99.90
32097;DHT22;18610;49.916;8.284;2023-04-21T08:08:57;9.50;99.90
32097;DHT22;18610;49.916;8.284;2023-04-21T08:11:24;9.50;99.90
32097;DHT22;18610;49.916;8.284;2023-04-21T08:13:52;9.50;99.90
32097;DHT22;18610;49.916;8.284;2023-04-21T08:16:21;9.60;99.90
32097;DHT22;18610;49.916;8.284;2023-04-21T08:18:47;9.60;99.90
32097;DHT22;18610;49.916;8.284;2023-04-21T08:21:14;9.60;99.90
32097;DHT22;18610;49.916;8.284;2023-04-21T08:23:41;9.70;99.90
32097;DHT22;18610;49.916;8.284;2023-04-21T08:26:08;9.80;99.90
32097;DHT22;18610;49.916;8.284;2023-04-21T08:28:35;9.90;99.90
32097;DHT22;18610;49.916;8.284;2023-04-21T08:31:01;10.00;99.90
32097;DHT22;18610;49.916;8.284;2023-04-21T08:33:30;10.20;99.90
32097;DHT22;18610;49.916;8.284;2023-04-21T08:35:57;10.30;99.90
32097;DHT22;18610;49.916;8.284;2023-04-21T08:38:24;10.50;99.90
32097;DHT22;18610;49.916;8.284;2023-04-21T08:40:50;10.50;99.90
32097;DHT22;18610;49.916;8.284;2023-04-21T08:43:17;10.50;99.90
32097;DHT22;18610;49.916;8.284;2023-04-21T08:45:44;10.60;99.90
32097;DHT22;18610;49.916;8.284;2023-04-21T08:48:13;10.80;99.90
32097;DHT22;18610;49.916;8.284;2023-04-21T08:50:43;11.00;99.90
32097;DHT22;18610;49.916;8.284;2023-04-21T08:53:11;11.20;99.90
32097;DHT22;18610;49.916;8.284;2023-04-21T08:55:39;11.30;99.90
32097;DHT22;18610;49.916;8.284;2023-04-21T08:58:06;11.50;99.90
32097;DHT22;18610;49.916;8.284;2023-04-21T09:00:33;11.60;99.90
32097;DHT22;18610;49.916;8.284;2023-04-21T09:03:00;11.80;99.90
32097;DHT22;18610;49.916;8.284;2023-04-21T09:05:29;11.80;99.90
32097;DHT22;18610;49.916;8.284;2023-04-21T09:08:07;11.90;99.90
32097;DHT22;18610;49.916;8.284;2023-04-21T09:10:42;11.90;99.90
32097;DHT22;18610;49.916;8.284;2023-04-21T09:13:09;12.00;99.90
32097;DHT22;18610;49.916;8.284;2023-04-21T09:15:38;12.00;99.90
32097;DHT22;18610;49.916;8.284;2023-04-21T09:18:11;12.00;99.90
32097;DHT22;18610;49.916;8.284;2023-04-21T09:20:38;12.30;99.90
32097;DHT22;18610;49.916;8.284;2023-04-21T09:23:06;12.60;99.90
32097;DHT22;18610;49.916;8.284;2023-04-21T09:25:33;13.00;99.90
32097;DHT22;18610;49.916;8.284;2023-04-21T09:28:00;13.40;99.90
32097;DHT22;18610;49.916;8.284;2023-04-21T09:30:27;13.80;99.90
32097;DHT22;18610;49.916;8.284;2023-04-21T09:32:55;14.10;99.90
32097;DHT22;18610;49.916;8.284;2023-04-21T09:35:26;14.50;99.90
32097;DHT22;18610;49.916;8.284;2023-04-21T09:37:53;14.90;99.90
32097;DHT22;18610;49.916;8.284;2023-04-21T09:40:21;15.30;99.90
32097;DHT22;18610;49.916;8.284;2023-04-21T09:42:49;15.70;99.90
32097;DHT22;18610;49.916;8.284;2023-04-21T09:45:16;16.00;99.90
32097;DHT22;18610;49.916;8.284;2023-04-21T09:47:48;16.30;99.90
32097;DHT22;18610;49.916;8.284;2023-04-21T09:50:16;16.50;99.90
32097;DHT22;18610;49.916;8.284;2023-04-21T09:52:43;16.60;99.90
32097;DHT22;18610;49.916;8.284;2023-04-21T09:55:11;16.90;99.90
32097;DHT22;18610;49.916;8.284;2023-04-21T09:57:41;17.00;99.90
32097;DHT22;18610;49.916;8.284;2023-04-21T10:00:10;17.10;99.90
32097;DHT22;18610;49.916;8.284;2023-04-21T10:02:42;17.20;99.90
32097;DHT22;18610;49.916;8.284;2023-04-21T10:05:10;17.40;99.90
32097;DHT22;18610;49.916;8.284;2023-04-21T10:07:37;17.70;99.90
32097;DHT22;18610;49.916;8.284;2023-04-21T10:10:07;17.90;99.90
32097;DHT22;18610;49.916;8.284;2023-04-21T10:12:34;18.10;99.90
32097;DHT22;18610;49.916;8.284;2023-04-21T10:15:04;18.40;99.90
32097;DHT22;18610;49.916;8.284;2023-04-21T10:17:34;18.60;99.00
32097;DHT22;18610;49.916;8.284;2023-04-21T10:20:06;18.80;99.20
32097;DHT22;18610;49.916;8.284;2023-04-21T10:22:34;19.10;99.70
32097;DHT22;18610;49.916;8.284;2023-04-21T10:25:05;19.30;99.10
32097;DHT22;18610;49.916;8.284;2023-04-21T10:27:35;19.50;99.60
32097;DHT22;18610;49.916;8.284;2023-04-21T10:33:03;19.70;98.50
32097;DHT22;18610;49.916;8.284;2023-04-21T10:35:57;19.60;95.90
32097;DHT22;18610;49.916;8.284;2023-04-21T10:38:34;19.70;97.30
32097;DHT22;18610;49.916;8.284;2023-04-21T10:41:24;19.80;95.40
32097;DHT22;18610;49.916;8.284;2023-04-21T10:43:52;19.80;95.40
32097;DHT22;18610;49.916;8.284;2023-04-21T10:46:33;19.90;96.70
32097;DHT22;18610;49.916;8.284;2023-04-21T10:49:11;20.10;96.70
32097;DHT22;18610;49.916;8.284;2023-04-21T10:52:06;20.30;97.00
32097;DHT22;18610;49.916;8.284;2023-04-21T10:54:41;20.30;95.40
32097;DHT22;18610;49.916;8.284;2023-04-21T10:57:11;20.10;95.00
32097;DHT22;18610;49.916;8.284;2023-04-21T10:59:38;19.80;95.50
32097;DHT22;18610;49.916;8.284;2023-04-21T11:02:05;19.90;96.00
32097;DHT22;18610;49.916;8.284;2023-04-21T11:04:34;20.10;95.60
32097;DHT22;18610;49.916;8.284;2023-04-21T11:07:05;20.50;94.10
32097;DHT22;18610;49.916;8.284;2023-04-21T11:09:32;20.70;93.30
32097;DHT22;18610;49.916;8.284;2023-04-21T11:12:00;21.00;92.90
32097;DHT22;18610;49.916;8.284;2023-04-21T11:14:29;21.20;92.20
32097;DHT22;18610;49.916;8.284;2023-04-21T11:16:55;21.20;90.60
32097;DHT22;18610;49.916;8.284;2023-04-21T11:19:22;21.00;91.90
32097;DHT22;18610;49.916;8.284;2023-04-21T11:21:52;20.90;93.30
32097;DHT22;18610;49.916;8.284;2023-04-21T11:24:19;20.80;93.10
32097;DHT22;18610;49.916;8.284;2023-04-21T11:26:47;20.60;93.30
32097;DHT22;18610;49.916;8.284;2023-04-21T11:29:16;20.40;93.50
32097;DHT22;18610;49.916;8.284;2023-04-21T11:31:44;20.40;94.10
32097;DHT22;18610;49.916;8.284;2023-04-21T11:34:13;20.40;93.80
32097;DHT22;18610;49.916;8.284;2023-04-21T11:36:42;20.50;93.30
32097;DHT22;18610;49.916;8.284;2023-04-21T11:39:12;20.80;92.80
32097;DHT22;18610;49.916;8.284;2023-04-21T11:41:41;21.10;92.00
32097;DHT22;18610;49.916;8.284;2023-04-21T11:44:08;21.40;91.70
32097;DHT22;18610;49.916;8.284;2023-04-21T11:46:35;21.50;90.40
32097;DHT22;18610;49.916;8.284;2023-04-21T11:49:06;21.50;91.00
32097;DHT22;18610;49.916;8.284;2023-04-21T11:51:34;21.70;90.90
32097;DHT22;18610;49.916;8.284;2023-04-21T11:54:01;22.00;90.40
32097;DHT22;18610;49.916;8.284;2023-04-21T11:56:34;22.30;90.10
32097;DHT22;18610;49.916;8.284;2023-04-21T11:59:05;22.50;86.90
32097;DHT22;18610;49.916;8.284;2023-04-21T12:01:32;22.70;86.80
32097;DHT22;18610;49.916;8.284;2023-04-21T12:03:59;22.80;86.50
32097;DHT22;18610;49.916;8.284;2023-04-21T12:06:26;22.90;86.40
32097;DHT22;18610;49.916;8.284;2023-04-21T12:09:00;23.10;86.20
32097;DHT22;18610;49.916;8.284;2023-04-21T12:11:29;23.20;85.10
32097;DHT22;18610;49.916;8.284;2023-04-21T12:13:58;23.30;83.60
32097;DHT22;18610;49.916;8.284;2023-04-21T12:16:26;23.40;82.20
32097;DHT22;18610;49.916;8.284;2023-04-21T12:18:54;23.50;79.40
32097;DHT22;18610;49.916;8.284;2023-04-21T12:21:25;23.50;78.30
32097;DHT22;18610;49.916;8.284;2023-04-21T12:23:51;23.30;76.00
32097;DHT22;18610;49.916;8.284;2023-04-21T12:26:18;23.10;80.40
32097;DHT22;18610;49.916;8.284;2023-04-21T12:28:45;23.20;81.80
32097;DHT22;18610;49.916;8.284;2023-04-21T12:31:13;23.30;81.70
32097;DHT22;18610;49.916;8.284;2023-04-21T12:33:40;23.30;80.60
32097;DHT22;18610;49.916;8.284;2023-04-21T12:36:07;23.40;78.50
32097;DHT22;18610;49.916;8.284;2023-04-21T12:38:33;23.50;76.10
32097;DHT22;18610;49.916;8.284;2023-04-21T12:41:00;23.10;75.60
32097;DHT22;18610;49.916;8.284;2023-04-21T12:43:27;22.80;76.90
32097;DHT22;18610;49.916;8.284;2023-04-21T12:45:53;22.80;78.50
32097;DHT22;18610;49.916;8.284;2023-04-21T12:48:22;22.60;79.30
32097;DHT22;18610;49.916;8.284;2023-04-21T12:50:49;22.40;78.40
32097;DHT22;18610;49.916;8.284;2023-04-21T12:53:16;22.20;79.70
32097;DHT22;18610;49.916;8.284;2023-04-21T12:55:42;22.20;80.80
32097;DHT22;18610;49.916;8.284;2023-04-21T12:58:09;22.20;81.30
32097;DHT22;18610;49.916;8.284;2023-04-21T13:00:37;22.10;81.20
32097;DHT22;18610;49.916;8.284;2023-04-21T13:03:04;22.10;83.20
32097;DHT22;18610;49.916;8.284;2023-04-21T13:05:33;22.10;82.10
32097;DHT22;18610;49.916;8.284;2023-04-21T13:07:59;22.10;81.40
32097;DHT22;18610;49.916;8.284;2023-04-21T13:10:27;22.10;81.60
32097;DHT22;18610;49.916;8.284;2023-04-21T13:12:53;22.20;81.40
32097;DHT22;18610;49.916;8.284;2023-04-21T13:15:20;22.00;79.60
32097;DHT22;18610;49.916;8.284;2023-04-21T13:17:47;21.90;81.50
32097;DHT22;18610;49.916;8.284;2023-04-21T13:20:14;21.70;81.30
32097;DHT22;18610;49.916;8.284;2023-04-21T13:22:44;21.50;82.80
32097;DHT22;18610;49.916;8.284;2023-04-21T13:25:11;21.40;83.50
32097;DHT22;18610;49.916;8.284;2023-04-21T13:27:38;21.30;83.30
32097;DHT22;18610;49.916;8.284;2023-04-21T13:30:06;21.40;84.90
32097;DHT22;18610;49.916;8.284;2023-04-21T13:32:33;21.70;85.30
32097;DHT22;18610;49.916;8.284;2023-04-21T13:35:00;21.70;83.40
32097;DHT22;18610;49.916;8.284;2023-04-21T13:37:29;21.70;81.60
32097;DHT22;18610;49.916;8.284;2023-04-21T13:39:57;21.60;82.50
32097;DHT22;18610;49.916;8.284;2023-04-21T13:42:24;21.60;82.10
32097;DHT22;18610;49.916;8.284;2023-04-21T13:44:50;21.90;84.50
32097;DHT22;18610;49.916;8.284;2023-04-21T13:47:18;22.50;83.90
32097;DHT22;18610;49.916;8.284;2023-04-21T13:49:44;23.10;80.10
32097;DHT22;18610;49.916;8.284;2023-04-21T13:52:11;23.60;78.50
32097;DHT22;18610;49.916;8.284;2023-04-21T13:54:38;24.00;76.70
32097;DHT22;18610;49.916;8.284;2023-04-21T13:57:06;24.00;76.60
32097;DHT22;18610;49.916;8.284;2023-04-21T13:59:33;23.60;74.90
32097;DHT22;18610;49.916;8.284;2023-04-21T14:02:00;23.30;75.00
32097;DHT22;18610;49.916;8.284;2023-04-21T14:04:26;23.40;74.80
32097;DHT22;18610;49.916;8.284;2023-04-21T14:06:53;23.40;73.90
32097;DHT22;18610;49.916;8.284;2023-04-21T14:09:20;23.70;74.10
32097;DHT22;18610;49.916;8.284;2023-04-21T14:11:47;23.90;71.80
32097;DHT22;18610;49.916;8.284;2023-04-21T14:14:15;24.00;70.20
32097;DHT22;18610;49.916;8.284;2023-04-21T14:16:42;24.20;70.10
32097;DHT22;18610;49.916;8.284;2023-04-21T14:19:09;24.50;70.30
32097;DHT22;18610;49.916;8.284;2023-04-21T14:21:35;24.80;67.50
32097;DHT22;18610;49.916;8.284;2023-04-21T14:24:02;25.00;67.70
32097;DHT22;18610;49.916;8.284;2023-04-21T14:26:30;25.40;67.50
32097;DHT22;18610;49.916;8.284;2023-04-21T14:28:57;25.50;64.50
32097;DHT22;18610;49.916;8.284;2023-04-21T14:31:25;25.50;64.10
32097;DHT22;18610;49.916;8.284;2023-04-21T14:33:52;25.40;64.60
32097;DHT22;18610;49.916;8.284;2023-04-21T14:36:19;25.40;62.60
32097;DHT22;18610;49.916;8.284;2023-04-21T14:38:46;25.30;62.50
32097;DHT22;18610;49.916;8.284;2023-04-21T14:41:12;25.30;62.30
32097;DHT22;18610;49.916;8.284;2023-04-21T14:43:39;25.30;61.30
32097;DHT22;18610;49.916;8.284;2023-04-21T14:46:06;25.00;61.30
32097;DHT22;18610;49.916;8.284;2023-04-21T14:48:34;24.90;62.30
32097;DHT22;18610;49.916;8.284;2023-04-21T14:51:01;24.80;63.70
32097;DHT22;18610;49.916;8.284;2023-04-21T14:53:27;24.70;64.80
32097;DHT22;18610;49.916;8.284;2023-04-21T14:55:54;24.60;63.60
32097;DHT22;18610;49.916;8.284;2023-04-21T14:58:21;24.50;65.00
32097;DHT22;18610;49.916;8.284;2023-04-21T15:00:47;24.30;66.00
32097;DHT22;18610;49.916;8.284;2023-04-21T15:03:16;24.10;65.70
32097;DHT22;18610;49.916;8.284;2023-04-21T15:05:44;23.90;63.60
32097;DHT22;18610;49.916;8.284;2023-04-21T15:08:11;23.70;64.50
32097;DHT22;18610;49.916;8.284;2023-04-21T15:10:42;23.50;67.60
32097;DHT22;18610;49.916;8.284;2023-04-21T15:13:09;23.40;68.00
32097;DHT22;18610;49.916;8.284;2023-04-21T15:15:36;23.20;68.30
32097;DHT22;18610;49.916;8.284;2023-04-21T15:18:03;23.10;70.10
32097;DHT22;18610;49.916;8.284;2023-04-21T15:20:29;23.00;68.40
32097;DHT22;18610;49.916;8.284;2023-04-21T15:22:57;22.80;68.60
32097;DHT22;18610;49.916;8.284;2023-04-21T15:25:25;22.70;65.40
32097;DHT22;18610;49.916;8.284;2023-04-21T15:27:51;22.60;67.20
32097;DHT22;18610;49.916;8.284;2023-04-21T15:30:18;22.60;67.10
32097;DHT22;18610;49.916;8.284;2023-04-21T15:32:45;22.50;69.00
32097;DHT22;18610;49.916;8.284;2023-04-21T15:35:12;22.40;68.70
32097;DHT22;18610;49.916;8.284;2023-04-21T15:37:41;22.40;69.20
32097;DHT22;18610;49.916;8.284;2023-04-21T15:40:10;22.30;69.30
32097;DHT22;18610;49.916;8.284;2023-04-21T15:42:36;22.30;69.40
32097;DHT22;18610;49.916;8.284;2023-04-21T15:45:04;22.40;69.60